createdAt,value
2017-08-23T00:00:45.035Z,1013.44
2017-08-23T00:01:54.661Z,1013.46
2017-08-23T00:03:04.322Z,1013.44
2017-08-23T00:04:13.946Z,1013.46
2017-08-23T00:05:24.183Z,1013.45
2017-08-23T00:06:34.117Z,1013.44
2017-08-23T00:07:44.079Z,1013.45
2017-08-23T00:08:54.309Z,1013.43
2017-08-23T00:10:04.238Z,1013.42
2017-08-23T00:11:14.161Z,1013.41
2017-08-23T00:12:24.081Z,1013.43
2017-08-23T00:13:34.001Z,1013.42
2017-08-23T00:14:43.616Z,1013.41
2017-08-23T00:15:53.592Z,1013.43
2017-08-23T00:17:03.518Z,1013.42
2017-08-23T00:18:13.778Z,1013.4
2017-08-23T00:19:23.390Z,1013.42
2017-08-23T00:20:33.309Z,1013.4
2017-08-23T00:21:43.241Z,1013.43
2017-08-23T00:22:52.845Z,1013.44
2017-08-23T00:24:02.474Z,1013.42
2017-08-23T00:25:12.109Z,1013.41
2017-08-23T00:26:22.024Z,1013.43
2017-08-23T00:27:31.945Z,1013.43
2017-08-23T00:28:42.189Z,1013.38
2017-08-23T00:29:52.121Z,1013.37
2017-08-23T00:31:01.741Z,1013.41
2017-08-23T00:32:11.964Z,1013.37
2017-08-23T00:33:21.887Z,1013.34
2017-08-23T00:34:31.504Z,1013.37
2017-08-23T00:35:41.154Z,1013.38
2017-08-23T00:36:51.406Z,1013.39
2017-08-23T00:38:01.333Z,1013.39
2017-08-23T00:39:11.588Z,1013.43
2017-08-23T00:40:20.305Z,1013.41
2017-08-23T00:41:30.244Z,1013.39
2017-08-23T00:42:40.178Z,1013.43
2017-08-23T00:43:49.874Z,1013.42
2017-08-23T00:45:00.097Z,1013.37
2017-08-23T00:46:09.733Z,1013.38
2017-08-23T00:47:19.956Z,1013.35
2017-08-23T00:48:30.189Z,1013.35
2017-08-23T00:49:40.409Z,1013.33
2017-08-23T00:50:50.329Z,1013.34
2017-08-23T00:52:00.557Z,1013.34
2017-08-23T00:53:10.173Z,1013.31
2017-08-23T00:54:20.167Z,1013.28
2017-08-23T00:55:30.393Z,1013.3
2017-08-23T00:56:40.621Z,1013.29
2017-08-23T00:57:50.533Z,1013.34
2017-08-23T00:59:00.447Z,1013.3
2017-08-23T01:00:10.358Z,1013.3
2017-08-23T01:01:20.606Z,1013.27
2017-08-23T01:02:30.565Z,1013.29
2017-08-23T01:03:40.811Z,1013.26
2017-08-23T01:04:50.740Z,1013.24
2017-08-23T01:06:00.675Z,1013.26
2017-08-23T01:07:10.010Z,1013.28
2017-08-23T01:08:19.629Z,1013.29
2017-08-23T01:09:29.244Z,1013.29
2017-08-23T01:10:39.476Z,1013.31
2017-08-23T01:11:49.395Z,1013.29
2017-08-23T01:12:59.312Z,1013.26
2017-08-23T01:14:09.550Z,1013.33
2017-08-23T01:15:19.461Z,1013.27
2017-08-23T01:16:29.683Z,1013.26
2017-08-23T01:17:39.761Z,1013.27
2017-08-23T01:18:49.980Z,1013.28
2017-08-23T01:20:00.266Z,1013.26
2017-08-23T01:21:09.563Z,1013.34
2017-08-23T01:22:19.490Z,1013.36
2017-08-23T01:23:29.733Z,1013.35
2017-08-23T01:24:39.360Z,1013.32
2017-08-23T01:25:48.995Z,1013.35
2017-08-23T01:26:59.237Z,1013.34
2017-08-23T01:28:09.476Z,1013.38
2017-08-23T01:29:19.701Z,1013.35
2017-08-23T01:30:29.618Z,1013.37
2017-08-23T01:31:39.860Z,1013.33
2017-08-23T01:32:49.837Z,1013.36
2017-08-23T01:33:59.746Z,1013.37
2017-08-23T01:35:09.388Z,1013.39
2017-08-23T01:36:19.325Z,1013.38
2017-08-23T01:37:28.950Z,1013.35
2017-08-23T01:38:39.183Z,1013.37
2017-08-23T01:39:49.124Z,1013.4
2017-08-23T01:40:59.368Z,1013.42
2017-08-23T01:42:09.290Z,1013.41
2017-08-23T01:43:18.899Z,1013.39
2017-08-23T01:44:29.130Z,1013.39
2017-08-23T01:45:39.359Z,1013.41
2017-08-23T01:46:49.269Z,1013.4
2017-08-23T01:47:59.189Z,1013.41
2017-08-23T01:49:08.206Z,1013.39
2017-08-23T01:50:17.817Z,1013.42
2017-08-23T01:51:27.734Z,1013.38
2017-08-23T01:52:37.654Z,1013.39
2017-08-23T01:53:47.897Z,1013.38
2017-08-23T01:54:58.116Z,1013.33
2017-08-23T01:56:07.737Z,1013.37
2017-08-23T01:57:17.994Z,1013.3
2017-08-23T01:58:28.239Z,1013.32
2017-08-23T01:59:38.195Z,1013.35
2017-08-23T02:00:48.428Z,1013.32
2017-08-23T02:01:58.658Z,1013.31
2017-08-23T02:03:08.585Z,1013.35
2017-08-23T02:04:18.205Z,1013.34
2017-08-23T02:05:27.827Z,1013.36
2017-08-23T02:06:37.748Z,1013.34
2017-08-23T02:07:47.368Z,1013.36
2017-08-23T02:08:57.283Z,1013.33
2017-08-23T02:10:07.203Z,1013.32
2017-08-23T02:11:17.106Z,1013.29
2017-08-23T02:12:26.418Z,1013.27
2017-08-23T02:13:36.040Z,1013.26
2017-08-23T02:14:46.349Z,1013.25
2017-08-23T02:15:55.673Z,1013.26
2017-08-23T02:17:05.281Z,1013.24
2017-08-23T02:18:15.508Z,1013.24
2017-08-23T02:19:26.105Z,1013.23
2017-08-23T02:20:35.718Z,1013.22
2017-08-23T02:21:45.024Z,1013.2
2017-08-23T02:22:54.373Z,1013.22
2017-08-23T02:24:04.616Z,1013.22
2017-08-23T02:25:14.554Z,1013.2
2017-08-23T02:26:24.160Z,1013.26
2017-08-23T02:27:33.472Z,1013.21
2017-08-23T02:28:43.725Z,1013.17
2017-08-23T02:29:53.653Z,1013.16
2017-08-23T02:31:03.883Z,1013.17
2017-08-23T02:32:13.847Z,1013.12
2017-08-23T02:33:23.149Z,1013.18
2017-08-23T02:34:32.767Z,1013.14
2017-08-23T02:35:42.686Z,1013.15
2017-08-23T02:36:52.295Z,1013.19
2017-08-23T02:38:01.929Z,1013.15
2017-08-23T02:39:11.541Z,1013.11
2017-08-23T02:40:21.769Z,1013.13
2017-08-23T02:41:31.992Z,1013.08
2017-08-23T02:42:41.604Z,1013.07
2017-08-23T02:43:51.234Z,1013.07
2017-08-23T02:45:00.548Z,1013.03
2017-08-23T02:46:10.482Z,1013.05
2017-08-23T02:47:20.423Z,1013.06
2017-08-23T02:48:30.694Z,1013.04
2017-08-23T02:49:40.305Z,1013.05
2017-08-23T02:50:50.244Z,1013.02
2017-08-23T02:52:00.178Z,1013.09
2017-08-23T02:53:09.795Z,1013.07
2017-08-23T02:54:20.021Z,1013.05
2017-08-23T02:55:29.631Z,1013.03
2017-08-23T02:56:39.577Z,1013.09
2017-08-23T02:57:49.816Z,1013.08
2017-08-23T02:59:00.046Z,1013.05
2017-08-23T03:00:09.671Z,1013.03
2017-08-23T03:01:19.600Z,1013.06
2017-08-23T03:02:29.534Z,1013.03
2017-08-23T03:03:39.781Z,1013.01
2017-08-23T03:04:49.699Z,1013.02
2017-08-23T03:05:59.330Z,1012.97
2017-08-23T03:07:08.973Z,1013.02
2017-08-23T03:08:18.906Z,1012.97
2017-08-23T03:09:28.538Z,1012.96
2017-08-23T03:10:38.150Z,1012.95
2017-08-23T03:11:48.066Z,1012.93
2017-08-23T03:12:57.675Z,1012.91
2017-08-23T03:14:07.905Z,1012.86
2017-08-23T03:15:17.507Z,1012.88
2017-08-23T03:16:27.459Z,1012.86
2017-08-23T03:17:37.688Z,1012.83
2017-08-23T03:18:47.910Z,1012.84
2017-08-23T03:19:57.836Z,1012.8
2017-08-23T03:21:07.140Z,1012.81
2017-08-23T03:22:16.749Z,1012.8
2017-08-23T03:23:26.996Z,1012.76
2017-08-23T03:24:36.925Z,1012.76
2017-08-23T03:25:46.858Z,1012.76
2017-08-23T03:26:56.193Z,1012.74
2017-08-23T03:28:05.837Z,1012.74
2017-08-23T03:29:16.093Z,1012.75
2017-08-23T03:30:26.018Z,1012.72
2017-08-23T03:31:36.248Z,1012.72
2017-08-23T03:32:46.165Z,1012.71
2017-08-23T03:33:56.412Z,1012.69
2017-08-23T03:35:06.635Z,1012.66
2017-08-23T03:36:16.546Z,1012.66
2017-08-23T03:37:26.483Z,1012.66
2017-08-23T03:38:36.087Z,1012.72
2017-08-23T03:39:46.323Z,1012.74
2017-08-23T03:40:55.938Z,1012.74
2017-08-23T03:42:05.863Z,1012.76
2017-08-23T03:43:15.718Z,1012.78
2017-08-23T03:44:25.643Z,1012.78
2017-08-23T03:45:35.556Z,1012.78
2017-08-23T03:46:45.785Z,1012.77
2017-08-23T03:47:55.703Z,1012.75
2017-08-23T03:49:05.622Z,1012.77
2017-08-23T03:50:15.244Z,1012.76
2017-08-23T03:51:24.848Z,1012.77
2017-08-23T03:52:34.783Z,1012.77
2017-08-23T03:53:45.029Z,1012.82
2017-08-23T03:54:55.262Z,1012.8
2017-08-23T03:56:05.483Z,1012.8
2017-08-23T03:59:47.777Z,1012.83
2017-08-23T04:00:58.040Z,1012.8
2017-08-23T04:02:08.258Z,1012.8
2017-08-23T04:03:18.487Z,1012.81
2017-08-23T04:04:28.726Z,1012.82
2017-08-23T04:05:38.651Z,1012.79
2017-08-23T04:06:48.573Z,1012.81
2017-08-23T04:07:58.803Z,1012.78
2017-08-23T04:09:08.749Z,1012.82
2017-08-23T04:10:18.972Z,1012.84
2017-08-23T04:11:28.912Z,1012.79
2017-08-23T04:12:38.862Z,1012.82
2017-08-23T04:13:48.790Z,1012.8
2017-08-23T04:14:59.042Z,1012.8
2017-08-23T04:16:09.010Z,1012.81
2017-08-23T04:17:18.938Z,1012.81
2017-08-23T04:18:28.861Z,1012.8
2017-08-23T04:19:38.499Z,1012.83
2017-08-23T04:20:48.103Z,1012.81
2017-08-23T04:21:58.327Z,1012.83
2017-08-23T04:23:08.240Z,1012.79
2017-08-23T04:24:18.466Z,1012.79
2017-08-23T04:25:28.092Z,1012.74
2017-08-23T04:26:38.015Z,1012.78
2017-08-23T04:27:47.937Z,1012.79
2017-08-23T04:28:58.153Z,1012.72
2017-08-23T04:30:08.086Z,1012.73
2017-08-23T04:31:17.692Z,1012.69
2017-08-23T04:32:26.686Z,1012.68
2017-08-23T04:33:36.311Z,1012.67
2017-08-23T04:34:46.258Z,1012.67
2017-08-23T04:35:55.885Z,1012.64
2017-08-23T04:37:05.498Z,1012.59
2017-08-23T04:38:15.442Z,1012.54
2017-08-23T04:39:25.046Z,1012.53
2017-08-23T04:40:34.970Z,1012.5
2017-08-23T04:41:43.965Z,1012.47
2017-08-23T04:42:54.200Z,1012.49
2017-08-23T04:44:04.180Z,1012.51
2017-08-23T04:45:14.122Z,1012.56
2017-08-23T04:46:23.740Z,1012.53
2017-08-23T04:47:33.958Z,1012.53
2017-08-23T04:48:43.873Z,1012.5
2017-08-23T04:49:54.110Z,1012.47
2017-08-23T04:51:04.054Z,1012.51
2017-08-23T04:52:13.989Z,1012.49
2017-08-23T04:53:23.608Z,1012.52
2017-08-23T04:54:33.829Z,1012.47
2017-08-23T04:55:43.793Z,1012.51
2017-08-23T04:56:53.713Z,1012.59
2017-08-23T04:58:03.347Z,1012.55
2017-08-23T04:59:13.262Z,1012.57
2017-08-23T05:00:23.185Z,1012.58
2017-08-23T05:01:58.773Z,1012.55
2017-08-23T05:03:08.747Z,1012.55
2017-08-23T05:04:18.970Z,1012.57
2017-08-23T05:05:29.200Z,1012.58
2017-08-23T05:06:38.809Z,1012.55
2017-08-23T05:07:48.421Z,1012.58
2017-08-23T05:08:58.629Z,1012.56
2017-08-23T05:10:08.544Z,1012.54
2017-08-23T05:11:18.762Z,1012.53
2017-08-23T05:12:29.008Z,1012.53
2017-08-23T05:13:38.322Z,1012.48
2017-08-23T05:14:48.387Z,1012.46
2017-08-23T05:15:58.595Z,1012.47
2017-08-23T05:17:08.534Z,1012.51
2017-08-23T05:18:18.766Z,1012.49
2017-08-23T05:19:28.758Z,1012.5
2017-08-23T05:20:38.835Z,1012.48
2017-08-23T05:21:48.480Z,1012.53
2017-08-23T05:22:58.405Z,1012.49
2017-08-23T05:24:08.628Z,1012.54
2017-08-23T05:25:18.853Z,1012.54
2017-08-23T05:26:29.121Z,1012.54
2017-08-23T05:27:39.056Z,1012.55
2017-08-23T05:28:48.669Z,1012.49
2017-08-23T05:29:57.967Z,1012.49
2017-08-23T05:31:07.310Z,1012.5
2017-08-23T05:32:17.684Z,1012.47
2017-08-23T05:33:27.593Z,1012.48
2017-08-23T05:34:37.496Z,1012.46
2017-08-23T05:35:47.411Z,1012.45
2017-08-23T05:36:57.637Z,1012.47
2017-08-23T05:38:08.223Z,1012.47
2017-08-23T05:39:17.835Z,1012.47
2017-08-23T05:40:27.760Z,1012.47
2017-08-23T05:41:37.985Z,1012.44
2017-08-23T05:42:48.211Z,1012.46
2017-08-23T05:43:58.465Z,1012.49
2017-08-23T05:45:08.378Z,1012.5
2017-08-23T05:46:18.328Z,1012.53
2017-08-23T05:47:28.581Z,1012.57
2017-08-23T05:48:38.503Z,1012.58
2017-08-23T05:49:49.030Z,1012.68
2017-08-23T05:50:58.956Z,1012.67
2017-08-23T05:52:09.188Z,1012.68
2017-08-23T05:53:18.514Z,1012.68
2017-08-23T05:54:28.436Z,1012.69
2017-08-23T05:55:38.824Z,1012.68
2017-08-23T05:56:48.750Z,1012.71
2017-08-23T05:57:59.004Z,1012.71
2017-08-23T05:59:08.958Z,1012.68
2017-08-23T06:00:18.571Z,1012.66
2017-08-23T06:01:28.985Z,1012.64
2017-08-23T06:02:38.910Z,1012.68
2017-08-23T06:03:48.838Z,1012.6
2017-08-23T06:04:59.076Z,1012.65
2017-08-23T06:06:09.000Z,1012.68
2017-08-23T06:07:18.293Z,1012.66
2017-08-23T06:08:28.224Z,1012.69
2017-08-23T06:09:38.449Z,1012.7
2017-08-23T06:10:48.694Z,1012.68
2017-08-23T06:11:58.948Z,1012.7
2017-08-23T06:13:08.962Z,1012.72
2017-08-23T06:14:19.191Z,1012.73
2017-08-23T06:15:29.113Z,1012.73
2017-08-23T06:16:39.337Z,1012.7
2017-08-23T06:17:49.558Z,1012.72
2017-08-23T06:18:59.195Z,1012.7
2017-08-23T06:20:09.430Z,1012.72
2017-08-23T06:21:19.664Z,1012.69
2017-08-23T06:22:28.368Z,1012.69
2017-08-23T06:23:38.286Z,1012.66
2017-08-23T06:24:48.323Z,1012.64
2017-08-23T06:25:58.266Z,1012.63
2017-08-23T06:27:08.491Z,1012.63
2017-08-23T06:28:18.425Z,1012.59
2017-08-23T06:29:28.376Z,1012.58
2017-08-23T06:30:38.769Z,1012.58
2017-08-23T06:31:48.395Z,1012.58
2017-08-23T06:32:58.327Z,1012.61
2017-08-23T06:34:08.558Z,1012.58
2017-08-23T06:35:18.194Z,1012.6
2017-08-23T06:36:28.170Z,1012.54
2017-08-23T06:37:38.385Z,1012.59
2017-08-23T06:38:48.630Z,1012.56
2017-08-23T06:39:58.567Z,1012.61
2017-08-23T06:41:07.868Z,1012.64
2017-08-23T06:42:17.931Z,1012.58
2017-08-23T06:43:28.154Z,1012.58
2017-08-23T06:44:38.084Z,1012.62
2017-08-23T06:45:48.334Z,1012.6
2017-08-23T06:46:58.580Z,1012.59
2017-08-23T06:48:08.660Z,1012.54
2017-08-23T06:49:18.286Z,1012.57
2017-08-23T06:50:27.967Z,1012.56
2017-08-23T06:51:37.597Z,1012.52
2017-08-23T06:52:47.532Z,1012.56
2017-08-23T06:53:57.314Z,1012.57
2017-08-23T06:55:07.255Z,1012.55
2017-08-23T06:56:17.186Z,1012.53
2017-08-23T06:57:27.405Z,1012.54
2017-08-23T06:58:37.336Z,1012.54
2017-08-23T06:59:47.325Z,1012.55
2017-08-23T07:00:57.563Z,1012.53
2017-08-23T07:02:07.811Z,1012.57
2017-08-23T07:03:17.452Z,1012.53
2017-08-23T07:04:27.706Z,1012.51
2017-08-23T07:05:37.795Z,1012.49
2017-08-23T07:06:47.713Z,1012.52
2017-08-23T07:07:57.943Z,1012.52
2017-08-23T07:09:07.901Z,1012.49
2017-08-23T07:10:17.818Z,1012.56
2017-08-23T07:11:27.886Z,1012.56
2017-08-23T07:12:37.506Z,1012.59
2017-08-23T07:13:47.741Z,1012.57
2017-08-23T07:14:57.688Z,1012.55
2017-08-23T07:16:07.616Z,1012.54
2017-08-23T07:17:17.350Z,1012.52
2017-08-23T07:18:26.961Z,1012.53
2017-08-23T07:19:36.880Z,1012.5
2017-08-23T07:20:47.101Z,1012.53
2017-08-23T07:21:57.024Z,1012.53
2017-08-23T07:23:07.607Z,1012.47
2017-08-23T07:24:17.221Z,1012.46
2017-08-23T07:25:27.153Z,1012.45
2017-08-23T07:26:36.767Z,1012.5
2017-08-23T07:27:47.015Z,1012.47
2017-08-23T07:28:56.630Z,1012.5
2017-08-23T07:30:05.943Z,1012.48
2017-08-23T07:31:15.883Z,1012.51
2017-08-23T07:32:25.492Z,1012.5
2017-08-23T07:33:35.777Z,1012.49
2017-08-23T07:34:46.048Z,1012.5
2017-08-23T07:35:55.673Z,1012.48
2017-08-23T07:37:05.612Z,1012.47
2017-08-23T07:38:15.235Z,1012.48
2017-08-23T07:39:25.473Z,1012.5
2017-08-23T07:40:34.936Z,1012.49
2017-08-23T07:41:44.849Z,1012.51
2017-08-23T07:42:54.767Z,1012.49
2017-08-23T07:44:04.686Z,1012.51
2017-08-23T07:45:14.652Z,1012.5
2017-08-23T07:46:24.692Z,1012.42
2017-08-23T07:47:34.614Z,1012.45
2017-08-23T07:48:44.565Z,1012.49
2017-08-23T07:49:54.206Z,1012.45
2017-08-23T07:51:04.141Z,1012.45
2017-08-23T07:52:14.526Z,1012.39
2017-08-23T07:53:24.142Z,1012.42
2017-08-23T07:54:33.766Z,1012.43
2017-08-23T07:55:43.839Z,1012.43
2017-08-23T07:56:54.102Z,1012.42
2017-08-23T07:58:03.940Z,1012.35
2017-08-23T07:59:13.566Z,1012.37
2017-08-23T08:00:22.871Z,1012.38
2017-08-23T08:01:32.797Z,1012.35
2017-08-23T08:02:42.751Z,1012.36
2017-08-23T08:03:53.160Z,1012.38
2017-08-23T08:05:03.077Z,1012.37
2017-08-23T08:06:12.703Z,1012.32
2017-08-23T08:07:22.948Z,1012.33
2017-08-23T08:08:32.876Z,1012.33
2017-08-23T08:09:42.833Z,1012.29
2017-08-23T08:10:52.749Z,1012.35
2017-08-23T08:12:02.998Z,1012.37
2017-08-23T08:13:12.606Z,1012.35
2017-08-23T08:14:22.848Z,1012.39
2017-08-23T08:15:32.771Z,1012.4
2017-08-23T08:16:42.996Z,1012.41
2017-08-23T08:17:52.914Z,1012.38
2017-08-23T08:19:02.218Z,1012.36
2017-08-23T08:20:11.833Z,1012.36
2017-08-23T08:21:22.422Z,1012.35
2017-08-23T08:22:32.673Z,1012.37
2017-08-23T08:23:42.598Z,1012.37
2017-08-23T08:24:52.529Z,1012.36
2017-08-23T08:26:02.143Z,1012.36
2017-08-23T08:27:11.947Z,1012.41
2017-08-23T08:28:21.262Z,1012.38
2017-08-23T08:29:31.181Z,1012.35
2017-08-23T08:30:40.794Z,1012.37
2017-08-23T08:31:50.737Z,1012.35
2017-08-23T08:33:00.512Z,1012.34
2017-08-23T08:34:10.146Z,1012.35
2017-08-23T08:35:20.405Z,1012.3
2017-08-23T08:36:30.326Z,1012.32
2017-08-23T08:37:39.971Z,1012.37
2017-08-23T08:38:50.033Z,1012.31
2017-08-23T08:40:00.261Z,1012.29
2017-08-23T08:41:10.525Z,1012.26
2017-08-23T08:42:20.138Z,1012.32
2017-08-23T08:43:30.378Z,1012.3
2017-08-23T08:44:40.774Z,1012.29
2017-08-23T08:45:50.424Z,1012.29
2017-08-23T08:47:00.350Z,1012.3
2017-08-23T08:48:10.286Z,1012.32
2017-08-23T08:49:20.204Z,1012.32
2017-08-23T08:50:30.118Z,1012.3
2017-08-23T08:51:39.439Z,1012.27
2017-08-23T08:52:49.382Z,1012.21
2017-08-23T08:53:59.026Z,1012.21
2017-08-23T08:55:09.256Z,1012.21
2017-08-23T08:56:19.017Z,1012.22
2017-08-23T08:57:28.988Z,1012.21
2017-08-23T08:58:38.913Z,1012.17
2017-08-23T08:59:48.824Z,1012.24
2017-08-23T09:00:58.737Z,1012.19
2017-08-23T09:02:09.105Z,1012.17
2017-08-23T09:03:19.028Z,1012.2
2017-08-23T09:04:28.952Z,1012.2
2017-08-23T09:05:38.565Z,1012.15
2017-08-23T09:06:47.559Z,1012.17
2017-08-23T09:07:57.944Z,1012.14
2017-08-23T09:09:08.169Z,1012.18
2017-08-23T09:10:18.140Z,1012.21
2017-08-23T09:11:28.124Z,1012.19
2017-08-23T09:12:37.748Z,1012.2
2017-08-23T09:13:47.056Z,1012.15
2017-08-23T09:14:57.075Z,1012.18
2017-08-23T09:16:07.003Z,1012.13
2017-08-23T09:17:17.250Z,1012.16
2017-08-23T09:18:26.882Z,1012.09
2017-08-23T09:19:36.275Z,1012.13
2017-08-23T09:20:46.217Z,1012.14
2017-08-23T09:21:56.197Z,1012.11
2017-08-23T09:23:05.830Z,1012.11
2017-08-23T09:24:16.144Z,1012.08
2017-08-23T09:25:25.874Z,1012.09
2017-08-23T09:26:36.091Z,1012.06
2017-08-23T09:27:45.392Z,1012.08
2017-08-23T09:28:55.009Z,1012.11
2017-08-23T09:30:04.929Z,1012.11
2017-08-23T09:31:14.542Z,1012.11
2017-08-23T09:32:24.493Z,1012.08
2017-08-23T09:33:34.136Z,1012.03
2017-08-23T09:34:44.365Z,1012.07
2017-08-23T09:35:54.323Z,1012.04
2017-08-23T09:37:04.409Z,1012.05
2017-08-23T09:38:14.647Z,1012.13
2017-08-23T09:39:23.969Z,1012.07
2017-08-23T09:40:33.916Z,1012.09
2017-08-23T09:41:43.831Z,1012.11
2017-08-23T09:42:54.245Z,1012.06
2017-08-23T09:44:04.163Z,1012.06
2017-08-23T09:45:14.103Z,1012.05
2017-08-23T09:46:24.040Z,1012.04
2017-08-23T09:47:33.649Z,1012
2017-08-23T09:48:44.234Z,1011.98
2017-08-23T09:49:54.166Z,1011.97
2017-08-23T09:51:03.801Z,1011.92
2017-08-23T09:52:13.121Z,1011.95
2017-08-23T09:53:23.046Z,1011.94
2017-08-23T09:54:33.312Z,1011.94
2017-08-23T09:55:43.543Z,1011.91
2017-08-23T09:56:53.462Z,1011.9
2017-08-23T09:58:02.904Z,1011.97
2017-08-23T09:59:12.866Z,1011.96
2017-08-23T10:00:22.516Z,1012
2017-08-23T10:01:32.468Z,1011.97
2017-08-23T10:02:42.094Z,1011.98
2017-08-23T10:03:52.040Z,1012
2017-08-23T10:05:01.677Z,1012.04
2017-08-23T10:06:11.786Z,1012
2017-08-23T10:07:21.751Z,1012.01
2017-08-23T10:08:31.362Z,1012.05
2017-08-23T10:09:41.589Z,1012.01
2017-08-23T10:10:50.916Z,1011.99
2017-08-23T10:12:01.203Z,1012
2017-08-23T10:13:11.119Z,1011.96
2017-08-23T10:14:20.482Z,1011.92
2017-08-23T10:15:30.151Z,1011.94
2017-08-23T10:16:40.244Z,1011.94
2017-08-23T10:17:50.001Z,1011.94
2017-08-23T10:18:59.954Z,1011.94
2017-08-23T10:20:09.923Z,1012.02
2017-08-23T10:21:19.581Z,1011.94
2017-08-23T10:22:29.548Z,1011.91
2017-08-23T10:23:39.812Z,1011.94
2017-08-23T10:24:50.042Z,1011.9
2017-08-23T10:25:59.962Z,1011.89
2017-08-23T10:27:10.236Z,1011.92
2017-08-23T10:28:20.167Z,1011.87
2017-08-23T10:29:30.237Z,1011.83
2017-08-23T10:30:40.153Z,1011.86
2017-08-23T10:31:50.091Z,1011.86
2017-08-23T10:33:00.326Z,1011.83
2017-08-23T10:34:10.603Z,1011.87
2017-08-23T10:35:20.559Z,1011.8
2017-08-23T10:36:30.496Z,1011.78
2017-08-23T10:37:40.737Z,1011.79
2017-08-23T10:38:50.344Z,1011.86
2017-08-23T10:39:59.399Z,1011.85
2017-08-23T10:41:09.497Z,1011.84
2017-08-23T10:42:19.423Z,1011.85
2017-08-23T10:43:29.058Z,1011.82
2017-08-23T10:44:38.993Z,1011.82
2017-08-23T10:45:48.609Z,1011.87
2017-08-23T10:46:59.189Z,1011.84
2017-08-23T10:48:09.147Z,1011.87
2017-08-23T10:49:19.095Z,1011.82
2017-08-23T10:50:28.760Z,1011.84
2017-08-23T10:51:38.736Z,1011.82
2017-08-23T10:52:49.023Z,1011.8
2017-08-23T10:53:58.433Z,1011.75
2017-08-23T10:55:08.452Z,1011.81
2017-08-23T10:56:17.792Z,1011.75
2017-08-23T10:57:27.833Z,1011.84
2017-08-23T10:58:38.431Z,1011.79
2017-08-23T10:59:47.473Z,1011.76
2017-08-23T11:00:56.839Z,1011.8
2017-08-23T11:02:07.174Z,1011.76
2017-08-23T11:03:16.836Z,1011.74
2017-08-23T11:04:26.661Z,1011.68
2017-08-23T11:05:36.289Z,1011.74
2017-08-23T11:06:46.268Z,1011.71
2017-08-23T11:07:55.975Z,1011.68
2017-08-23T11:09:06.316Z,1011.63
2017-08-23T11:10:16.873Z,1011.68
2017-08-23T11:11:26.846Z,1011.63
2017-08-23T11:12:36.797Z,1011.61
2017-08-23T11:13:47.053Z,1011.58
2017-08-23T11:14:57.054Z,1011.53
2017-08-23T11:16:07.154Z,1011.5
2017-08-23T11:17:16.468Z,1011.52
2017-08-23T11:18:26.719Z,1011.46
2017-08-23T11:19:36.657Z,1011.47
2017-08-23T11:20:46.595Z,1011.45
2017-08-23T11:21:56.747Z,1011.4
2017-08-23T11:23:06.719Z,1011.45
2017-08-23T11:24:16.716Z,1011.35
2017-08-23T11:25:26.764Z,1011.32
2017-08-23T11:26:36.806Z,1011.29
2017-08-23T11:27:46.439Z,1011.22
2017-08-23T11:28:55.781Z,1011.25
2017-08-23T11:30:05.417Z,1011.22
2017-08-23T11:31:15.680Z,1011.23
2017-08-23T11:32:25.626Z,1011.2
2017-08-23T11:33:35.422Z,1011.21
2017-08-23T11:34:44.829Z,1011.18
2017-08-23T11:35:54.473Z,1011.16
2017-08-23T11:37:03.824Z,1011.13
2017-08-23T11:38:13.459Z,1011.1
2017-08-23T11:39:23.489Z,1011.08
2017-08-23T11:40:33.487Z,1011.13
2017-08-23T11:41:43.149Z,1011.11
2017-08-23T11:42:53.396Z,1011.07
2017-08-23T11:44:03.320Z,1011.07
2017-08-23T11:45:13.593Z,1011.04
2017-08-23T11:46:23.826Z,1011.08
2017-08-23T11:47:33.431Z,1011.01
2017-08-23T11:48:43.364Z,1011.09
2017-08-23T11:49:53.285Z,1011.06
2017-08-23T11:51:03.067Z,1011.08
2017-08-23T11:52:13.006Z,1011.09
2017-08-23T11:53:23.244Z,1011.12
2017-08-23T11:54:32.548Z,1011.06
2017-08-23T11:55:42.157Z,1011.08
2017-08-23T11:56:52.703Z,1011.13
2017-08-23T11:58:02.652Z,1011.09
2017-08-23T11:59:12.880Z,1011.1
2017-08-23T12:00:23.342Z,1011.09
2017-08-23T12:01:33.594Z,1011.09
2017-08-23T12:02:43.101Z,1011.06
2017-08-23T12:03:53.085Z,1011
2017-08-23T12:05:02.780Z,1011.03
2017-08-23T12:06:12.436Z,1010.99
2017-08-23T12:07:22.055Z,1010.93
2017-08-23T12:08:32.198Z,1010.88
2017-08-23T12:09:41.822Z,1010.89
2017-08-23T12:10:51.432Z,1010.87
2017-08-23T12:12:00.735Z,1010.84
2017-08-23T12:13:10.680Z,1010.84
2017-08-23T12:14:20.652Z,1010.87
2017-08-23T12:15:30.295Z,1010.89
2017-08-23T12:16:39.635Z,1010.86
2017-08-23T12:17:49.264Z,1010.86
2017-08-23T12:18:59.182Z,1010.9
2017-08-23T12:20:09.259Z,1010.86
2017-08-23T12:21:18.896Z,1010.91
2017-08-23T12:22:28.507Z,1010.86
2017-08-23T12:23:38.131Z,1010.89
2017-08-23T12:24:48.388Z,1010.81
2017-08-23T12:25:58.355Z,1010.82
2017-08-23T12:27:08.278Z,1010.78
2017-08-23T12:28:18.527Z,1010.77
2017-08-23T12:29:28.185Z,1010.78
2017-08-23T12:30:38.158Z,1010.82
2017-08-23T12:31:48.535Z,1010.73
2017-08-23T12:32:58.164Z,1010.75
2017-08-23T12:34:08.122Z,1010.73
2017-08-23T12:35:17.428Z,1010.76
2017-08-23T12:36:27.381Z,1010.75
2017-08-23T12:37:37.013Z,1010.81
2017-08-23T12:38:46.646Z,1010.8
2017-08-23T12:39:56.880Z,1010.75
2017-08-23T12:41:07.101Z,1010.78
2017-08-23T12:42:16.715Z,1010.76
2017-08-23T12:43:26.802Z,1010.72
2017-08-23T12:44:36.463Z,1010.76
2017-08-23T12:45:46.397Z,1010.78
2017-08-23T12:46:56.355Z,1010.75
2017-08-23T12:48:06.610Z,1010.7
2017-08-23T12:49:16.100Z,1010.66
2017-08-23T12:50:25.716Z,1010.66
2017-08-23T12:51:35.968Z,1010.68
2017-08-23T12:52:46.250Z,1010.7
2017-08-23T12:53:55.887Z,1010.66
2017-08-23T12:55:06.172Z,1010.68
2017-08-23T12:56:16.403Z,1010.62
2017-08-23T12:57:26.330Z,1010.58
2017-08-23T12:58:35.974Z,1010.6
2017-08-23T12:59:46.227Z,1010.61
2017-08-23T13:00:55.586Z,1010.61
2017-08-23T13:02:05.214Z,1010.62
2017-08-23T13:03:15.468Z,1010.61
2017-08-23T13:04:25.694Z,1010.6
2017-08-23T13:05:35.004Z,1010.61
2017-08-23T13:06:44.790Z,1010.59
2017-08-23T13:07:54.731Z,1010.58
2017-08-23T13:09:04.677Z,1010.59
2017-08-23T13:10:14.939Z,1010.59
2017-08-23T13:11:25.165Z,1010.65
2017-08-23T13:12:35.222Z,1010.61
2017-08-23T13:13:45.467Z,1010.65
2017-08-23T13:14:55.702Z,1010.62
2017-08-23T13:16:05.317Z,1010.63
2017-08-23T13:17:14.939Z,1010.59
2017-08-23T13:18:25.195Z,1010.62
2017-08-23T13:19:35.114Z,1010.63
2017-08-23T13:20:45.588Z,1010.62
2017-08-23T13:21:56.200Z,1010.55
2017-08-23T13:23:05.832Z,1010.59
2017-08-23T13:24:15.612Z,1010.53
2017-08-23T13:25:25.562Z,1010.52
2017-08-23T13:26:35.498Z,1010.5
2017-08-23T13:27:45.421Z,1010.51
2017-08-23T13:28:55.048Z,1010.44
2017-08-23T13:30:04.958Z,1010.48
2017-08-23T13:31:14.883Z,1010.43
2017-08-23T13:32:24.847Z,1010.39
2017-08-23T13:33:35.086Z,1010.42
2017-08-23T13:34:44.441Z,1010.37
2017-08-23T13:35:55.065Z,1010.37
2017-08-23T13:37:04.418Z,1010.35
2017-08-23T13:38:14.351Z,1010.33
2017-08-23T13:39:24.299Z,1010.35
2017-08-23T13:40:33.964Z,1010.31
2017-08-23T13:41:44.569Z,1010.34
2017-08-23T13:42:54.848Z,1010.37
2017-08-23T13:44:04.786Z,1010.4
2017-08-23T13:45:14.424Z,1010.38
2017-08-23T13:46:24.350Z,1010.37
2017-08-23T13:47:34.151Z,1010.36
2017-08-23T13:48:43.831Z,1010.35
2017-08-23T13:49:54.070Z,1010.38
2017-08-23T13:51:03.700Z,1010.32
2017-08-23T13:52:13.344Z,1010.29
2017-08-23T13:53:23.369Z,1010.26
2017-08-23T13:54:32.989Z,1010.25
2017-08-23T13:55:43.221Z,1010.25
2017-08-23T13:56:53.161Z,1010.24
2017-08-23T13:58:03.095Z,1010.21
2017-08-23T13:59:13.142Z,1010.2
2017-08-23T14:00:22.769Z,1010.24
2017-08-23T14:01:32.057Z,1010.19
2017-08-23T14:02:42.399Z,1010.22
2017-08-23T14:03:52.338Z,1010.18
2017-08-23T14:05:02.670Z,1010.21
2017-08-23T14:06:12.603Z,1010.21
2017-08-23T14:07:22.517Z,1010.22
2017-08-23T14:08:32.138Z,1010.2
2017-08-23T14:09:41.771Z,1010.19
2017-08-23T14:10:52.150Z,1010.17
2017-08-23T14:12:02.397Z,1010.15